• Join FlightAware (Why Join?)
  • Login
  • US Flag 
11:26PM EDT


 

Airport Tracker/Info


-or-


 

Live Flight TrackerFlight Track Log ✈ UCA3597 ✈ 06-Dec-2013 ✈ KIAD - KBGM

Flight Track Log - Related Links

Times and Time Zones

All times are in EST time to prevent confusion due to time zone crossing. See the UCA3597 flight status page for this flight to view local times or setup timezone preferences in your user account.

Time Position Orientation Groundspeed Altitude Reporting Facility
EST Latitude Longitude Course Direction KTS MPH feet Rate Location/Type
06:24PM 40.2118 -76.9040 19° North  Level Estimated
06:25PM 40.2861 -76.8706 19° North  Level Estimated
06:26PM 40.3604 -76.8372 19° North  Level Estimated
06:27PM 40.4347 -76.8037 19° North  Level Estimated
06:28PM 40.5089 -76.7701 19° North  Level Estimated
06:29PM 40.5832 -76.7365 19° North  Level Estimated
06:30PM 40.6574 -76.7028 19° North  Level Estimated
06:31PM 40.7317 -76.6690 19° North  Level Estimated
06:32PM 40.8059 -76.6351 19° North  Level Estimated
06:33PM 40.8801 -76.6012 19° North  Level Estimated
06:34PM 40.9543 -76.5672 19° North  Level Estimated
06:35PM 41.0285 -76.5331 19° North  Level Estimated
06:36PM 41.1027 -76.4989 19° North  Level Estimated
06:37PM 41.1769 -76.4647 19° North  Level Estimated
06:38PM 41.2510 -76.4303 19° North  Level Estimated
06:39PM 41.3252 -76.3959 19° North  Level Estimated
06:40PM 41.3993 -76.3614 19° North  Level Estimated
06:41PM 41.4734 -76.3269 19° North  Level Estimated
06:42PM 41.5476 -76.2922 19° North  Level Estimated
06:43PM 41.6217 -76.2575 19° North  Level Estimated
06:44PM 41.6958 -76.2227 19° North  Level Estimated
06:45PM 41.7699 -76.1878 19° North  Level Estimated
06:46PM 41.8439 -76.1529 19° North  Level Estimated
06:47PM 41.9180 -76.1178 19° North  Level Estimated
06:48PM 41.9921 -76.0827 19° North  Level Estimated
06:49PM 42.0661 -76.0475 19° North  Level Estimated
06:50PM 42.1402 -76.0122 19° North  Level Estimated
06:51PM 42.2084 -75.9796 19° North  Level Estimated
06:52PM 42.2084 -75.9796 35° Northeast  Level Estimated
06:53PM 42.2084 -75.9796 35° Northeast  Level Estimated
06:54PM 42.2084 -75.9796 35° Northeast  Level Estimated
06:55PM 42.2084 -75.9796 35° Northeast  Level Estimated
06:56PM 42.2084 -75.9796 35° Northeast  Level Estimated
06:57PM 42.2084 -75.9796 35° Northeast  Level Estimated
06:58PM 42.2084 -75.9796 35° Northeast  Level Estimated
06:59PM 42.2084 -75.9796 35° Northeast  Level Estimated
07:00PM 42.2084 -75.9796 35° Northeast  Level Estimated
07:01PM 42.2084 -75.9796 35° Northeast  Level Estimated
07:02PM 42.2084 -75.9796 35° Northeast  Level Estimated
07:03PM 42.2084 -75.9796 35° Northeast  Level Estimated
07:04PM 42.2084 -75.9796 35° Northeast  Level Estimated
07:05PM 42.2084 -75.9796 35° Northeast  Level Estimated
07:06PM 42.2084 -75.9796 35° Northeast  Level Estimated
07:07PM 42.2084 -75.9796 35° Northeast  Level Estimated